Time;durP1;ratioP1;P1;durP2;ratioP2;P2;SDS_P1;SDS_P2;PMS_P1;PMS_P2;Temp;Humidity;BMP_temperature;BMP_pressure;BME280_temperature;BME280_humidity;BME280_pressure;Samples;Min_cycle;Max_cycle;Signal;HPM_P1;HPM_P2
2022/03/31 00:00:07;;;;;;;25.90;15.40;;;;;;;7.68;100.00;96392.88;5056349;28;20583;-71
2022/03/31 00:02:34;;;;;;;23.50;15.50;;;;;;;7.68;100.00;96392.03;5056675;28;20724;-70
2022/03/31 00:05:00;;;;;;;23.90;15.73;;;;;;;7.68;100.00;96386.78;5057048;28;20608;-71
2022/03/31 00:07:28;;;;;;;25.13;16.80;;;;;;;7.69;100.00;96388.44;5054670;28;20282;-71
2022/03/31 00:09:54;;;;;;;23.50;15.63;;;;;;;7.67;100.00;96390.38;5056515;28;20223;-70
2022/03/31 00:12:21;;;;;;;24.40;15.37;;;;;;;7.67;100.00;96393.00;5056562;28;20220;-70
2022/03/31 00:14:48;;;;;;;24.17;16.13;;;;;;;7.72;100.00;96396.06;5057220;28;20219;-70
2022/03/31 00:17:14;;;;;;;22.67;15.00;;;;;;;7.71;100.00;96382.06;5056093;28;20219;-71
2022/03/31 00:19:41;;;;;;;23.37;15.90;;;;;;;7.69;100.00;96378.75;5056114;28;20589;-70
2022/03/31 00:22:08;;;;;;;24.40;15.93;;;;;;;7.69;100.00;96383.16;5056663;28;20214;-71
2022/03/31 00:24:36;;;;;;;21.33;14.80;;;;;;;7.65;100.00;96373.91;5056266;28;20222;-70
2022/03/31 00:27:02;;;;;;;22.67;15.03;;;;;;;7.58;100.00;96372.72;5055965;28;20234;-71
2022/03/31 00:29:29;;;;;;;22.73;15.17;;;;;;;7.52;100.00;96365.38;5056433;28;20235;-70
2022/03/31 00:31:55;;;;;;;21.53;15.10;;;;;;;7.49;100.00;96368.25;5056725;28;20218;-70
2022/03/31 00:34:22;;;;;;;21.53;14.87;;;;;;;7.44;100.00;96359.94;5057041;28;20216;-71
2022/03/31 00:36:48;;;;;;;23.00;14.53;;;;;;;7.37;100.00;96361.41;5057090;28;20215;-71
2022/03/31 00:39:31;;;;;;;19.77;13.73;;;;;;;7.31;100.00;96369.81;5058528;28;20214;-70
2022/03/31 00:42:00;;;;;;;21.30;14.90;;;;;;;7.30;100.00;96355.84;5060374;28;20237;-70
2022/03/31 00:44:27;;;;;;;22.27;14.60;;;;;;;7.26;100.00;96353.59;5059070;28;20215;-69
2022/03/31 00:46:55;;;;;;;21.63;13.60;;;;;;;7.26;100.00;96356.22;5056933;28;20591;-69
2022/03/31 00:49:23;;;;;;;19.57;13.50;;;;;;;7.28;100.00;96348.22;5058919;28;20237;-69
2022/03/31 00:51:52;;;;;;;20.63;13.57;;;;;;;7.23;100.00;96346.00;5060606;28;20226;-70
2022/03/31 00:54:20;;;;;;;20.53;13.77;;;;;;;7.22;100.00;96346.97;5060585;28;20215;-72
2022/03/31 00:56:49;;;;;;;18.93;13.90;;;;;;;7.18;100.00;96346.34;5062017;28;20244;-70
2022/03/31 00:59:18;;;;;;;17.17;13.03;;;;;;;7.16;100.00;96347.47;5059984;28;20225;-71
2022/03/31 01:01:46;;;;;;;23.43;13.93;;;;;;;7.14;100.00;96338.06;5061055;28;20240;-71
2022/03/31 01:04:14;;;;;;;17.97;13.13;;;;;;;7.11;100.00;96339.13;5058604;28;20603;-71
2022/03/31 01:06:42;;;;;;;19.57;13.37;;;;;;;7.05;100.00;96333.56;5059703;28;20269;-70
2022/03/31 01:09:08;;;;;;;18.33;12.80;;;;;;;7.05;100.00;96334.41;5058126;28;20720;-71
2022/03/31 01:11:35;;;;;;;18.87;12.73;;;;;;;6.98;100.00;96333.25;5061383;28;20217;-71
2022/03/31 01:14:01;;;;;;;18.67;14.23;;;;;;;6.85;100.00;96323.88;5059711;28;20659;-70
2022/03/31 01:16:31;;;;;;;19.37;12.63;;;;;;;6.73;100.00;96335.41;5057267;28;20215;-69
2022/03/31 01:18:58;;;;;;;17.00;12.57;;;;;;;6.64;100.00;96334.34;5060638;28;20219;-69
2022/03/31 01:21:24;;;;;;;18.37;12.27;;;;;;;6.55;100.00;96324.63;5057279;28;20585;-70
2022/03/31 01:23:54;;;;;;;18.33;13.00;;;;;;;6.51;100.00;96325.81;5055016;28;20217;-71
2022/03/31 01:26:21;;;;;;;18.23;12.93;;;;;;;6.43;100.00;96325.63;5053419;28;20253;-70
2022/03/31 01:28:48;;;;;;;18.70;12.90;;;;;;;6.38;100.00;96321.69;5054955;28;20249;-69
2022/03/31 01:31:14;;;;;;;17.80;13.13;;;;;;;6.34;100.00;96321.09;5056253;28;20219;-70
2022/03/31 01:33:41;;;;;;;16.87;12.20;;;;;;;6.29;100.00;96312.78;5054883;28;20224;-70
2022/03/31 01:36:08;;;;;;;16.87;12.00;;;;;;;6.24;100.00;96314.94;5055117;28;20215;-71
2022/03/31 01:38:35;;;;;;;18.23;12.63;;;;;;;6.15;100.00;96305.19;5056978;28;20223;-70
2022/03/31 01:41:04;;;;;;;17.43;12.47;;;;;;;6.11;100.00;96309.00;5059922;28;20214;-70
2022/03/31 01:43:31;;;;;;;17.13;12.13;;;;;;;6.12;100.00;96308.03;5044861;28;20218;-69
2022/03/31 01:45:58;;;;;;;16.07;11.57;;;;;;;6.16;100.00;96312.09;5057774;28;20220;-72
2022/03/31 01:48:25;;;;;;;17.47;12.50;;;;;;;6.16;100.00;96301.59;5055340;28;20248;-70
2022/03/31 01:50:51;;;;;;;17.70;12.07;;;;;;;6.18;100.00;96304.94;5064315;28;20217;-70
2022/03/31 01:53:19;;;;;;;17.90;12.93;;;;;;;6.15;100.00;96299.94;5046631;28;20219;-70
2022/03/31 01:55:46;;;;;;;16.23;11.77;;;;;;;6.14;100.00;96290.41;5063512;28;20711;-69
2022/03/31 01:58:13;;;;;;;17.20;12.10;;;;;;;6.11;100.00;96290.66;5060478;28;20221;-69
2022/03/31 02:00:40;;;;;;;17.60;12.13;;;;;;;6.20;100.00;96289.94;5061240;28;20217;-70
2022/03/31 02:03:07;;;;;;;18.03;12.50;;;;;;;6.18;100.00;96288.38;5059118;28;20244;-70
2022/03/31 02:05:33;;;;;;;17.60;12.60;;;;;;;6.13;100.00;96285.28;5054857;28;20216;-69
2022/03/31 02:07:59;;;;;;;17.50;13.03;;;;;;;6.15;100.00;96286.00;5054200;28;20238;-71
2022/03/31 02:10:26;;;;;;;19.73;13.70;;;;;;;6.11;100.00;96282.78;5054903;28;20242;-70
2022/03/31 02:12:53;;;;;;;17.23;13.00;;;;;;;6.07;100.00;96281.38;5054674;28;20214;-69
2022/03/31 02:15:22;;;;;;;18.47;13.27;;;;;;;6.04;100.00;96275.56;5055108;28;20237;-69
2022/03/31 02:17:48;;;;;;;17.70;12.67;;;;;;;5.97;100.00;96280.44;5053626;28;20798;-70
2022/03/31 02:20:16;;;;;;;19.70;13.67;;;;;;;5.92;100.00;96277.34;5054984;28;20261;-69
2022/03/31 02:22:42;;;;;;;20.47;14.27;;;;;;;6.02;100.00;96278.28;5053331;28;20213;-70
2022/03/31 02:25:11;;;;;;;18.10;13.57;;;;;;;6.03;100.00;96274.72;5054321;28;20225;-70
2022/03/31 02:27:37;;;;;;;18.60;13.20;;;;;;;5.99;100.00;96273.28;5054394;28;20214;-69
2022/03/31 02:30:05;;;;;;;18.10;12.80;;;;;;;6.01;100.00;96271.38;5054244;28;20580;-70
2022/03/31 02:32:34;;;;;;;18.17;13.30;;;;;;;6.02;100.00;96261.72;5055014;28;20226;-70
2022/03/31 02:35:00;;;;;;;18.33;13.40;;;;;;;6.01;100.00;96260.06;5057986;28;20209;-70
2022/03/31 02:37:27;;;;;;;20.50;13.93;;;;;;;6.00;100.00;96264.50;5057107;28;20210;-69
2022/03/31 02:39:53;;;;;;;21.63;14.80;;;;;;;6.03;100.00;96252.88;5057900;28;20224;-69
2022/03/31 02:42:20;;;;;;;20.53;13.53;;;;;;;5.90;100.00;96254.84;5057802;28;20221;-70
2022/03/31 02:44:46;;;;;;;20.23;15.00;;;;;;;5.89;100.00;96258.41;5054502;28;20225;-70
2022/03/31 02:47:13;;;;;;;21.27;14.47;;;;;;;5.90;100.00;96253.06;5058075;28;20704;-70
2022/03/31 02:49:41;;;;;;;21.33;14.50;;;;;;;5.78;100.00;96251.38;5057924;28;20241;-70
2022/03/31 02:52:08;;;;;;;20.57;14.80;;;;;;;5.76;100.00;96255.09;5055249;28;20299;-71
2022/03/31 02:57:19;;;;;;;21.77;15.50;;;;;;;5.80;100.00;96252.13;5055173;28;20219;-70
2022/03/31 02:59:46;;;;;;;20.83;14.90;;;;;;;5.81;100.00;96247.72;5058112;28;20262;-70
2022/03/31 03:02:13;;;;;;;19.63;14.63;;;;;;;5.74;100.00;96242.09;5056126;28;20280;-70
2022/03/31 03:04:40;;;;;;;21.77;15.27;;;;;;;5.71;100.00;96247.59;5059770;28;20214;-70
2022/03/31 03:07:07;;;;;;;19.30;14.57;;;;;;;5.64;100.00;96235.94;5062015;28;20210;-69
2022/03/31 03:09:33;;;;;;;18.90;14.87;;;;;;;5.65;100.00;96232.38;5060767;28;20248;-70
2022/03/31 03:12:00;;;;;;;21.53;15.43;;;;;;;5.63;100.00;96238.69;5060078;28;20221;-70
2022/03/31 03:14:26;;;;;;;20.83;14.93;;;;;;;5.59;100.00;96235.47;5060141;28;20227;-70
2022/03/31 03:16:54;;;;;;;20.20;14.77;;;;;;;5.60;100.00;96238.91;5059890;28;20224;-70
2022/03/31 03:19:20;;;;;;;20.90;15.17;;;;;;;5.62;100.00;96232.59;5060545;28;20636;-70
2022/03/31 03:21:48;;;;;;;20.27;15.10;;;;;;;5.64;100.00;96235.94;5061027;28;20701;-70
2022/03/31 03:24:15;;;;;;;19.57;14.20;;;;;;;5.65;100.00;96234.13;5062146;28;20712;-70
2022/03/31 03:26:41;;;;;;;18.83;14.67;;;;;;;5.60;100.00;96229.28;5062381;28;20224;-70
2022/03/31 03:29:08;;;;;;;20.80;14.93;;;;;;;5.56;100.00;96222.59;5062428;28;20327;-70
2022/03/31 03:31:35;;;;;;;20.07;15.20;;;;;;;5.58;100.00;96220.72;5061120;28;20216;-70
2022/03/31 03:34:01;;;;;;;20.30;14.90;;;;;;;5.58;100.00;96230.34;5061266;28;20229;-71
2022/03/31 03:36:28;;;;;;;21.17;14.33;;;;;;;5.59;100.00;96225.00;5060719;28;20231;-70
2022/03/31 03:38:55;;;;;;;21.17;15.00;;;;;;;5.68;100.00;96220.81;5060145;28;20250;-70
2022/03/31 03:41:22;;;;;;;19.93;14.67;;;;;;;5.70;100.00;96224.13;5058526;28;20208;-70
2022/03/31 03:43:48;;;;;;;21.43;14.27;;;;;;;5.69;100.00;96223.28;5057637;28;20212;-69
2022/03/31 03:46:15;;;;;;;18.83;13.50;;;;;;;5.68;100.00;96224.25;5057252;28;20212;-70
2022/03/31 03:48:41;;;;;;;20.40;15.10;;;;;;;5.62;100.00;96216.88;5057494;28;20248;-70
2022/03/31 03:51:09;;;;;;;20.97;13.97;;;;;;;5.64;100.00;96225.47;5058219;28;20216;-69
2022/03/31 03:53:35;;;;;;;20.80;14.97;;;;;;;5.67;100.00;96219.97;5057219;28;20300;-69
2022/03/31 03:56:04;;;;;;;19.13;13.97;;;;;;;5.70;100.00;96219.72;5057500;28;20225;-68
2022/03/31 03:58:30;;;;;;;20.27;15.47;;;;;;;5.70;100.00;96219.72;5056591;28;20225;-69
2022/03/31 04:00:57;;;;;;;18.83;13.20;;;;;;;5.65;100.00;96216.63;5055425;28;20216;-69
2022/03/31 04:03:23;;;;;;;20.03;14.50;;;;;;;5.64;100.00;96220.22;5054470;28;20604;-69
2022/03/31 04:05:51;;;;;;;19.13;14.63;;;;;;;5.67;100.00;96214.72;5056792;28;20213;-69
2022/03/31 04:08:17;;;;;;;17.67;13.37;;;;;;;5.67;100.00;96214.72;5056742;28;20218;-69
2022/03/31 04:10:44;;;;;;;19.70;14.50;;;;;;;5.71;100.00;96208.28;5060786;28;20298;-69
2022/03/31 04:13:12;;;;;;;20.57;14.53;;;;;;;5.69;100.00;96218.03;5056389;28;20217;-68
2022/03/31 04:15:39;;;;;;;17.43;13.50;;;;;;;5.69;100.00;96218.03;5055568;28;20730;-69
2022/03/31 04:18:07;;;;;;;21.63;14.87;;;;;;;5.68;100.00;96211.13;5056371;28;20584;-70
2022/03/31 04:20:34;;;;;;;18.33;13.40;;;;;;;5.63;100.00;96208.03;5057481;28;20256;-70
2022/03/31 04:23:01;;;;;;;17.93;13.20;;;;;;;5.62;100.00;96211.63;5054580;28;20216;-70
2022/03/31 04:25:27;;;;;;;19.67;13.67;;;;;;;5.64;100.00;96219.38;5056086;28;20296;-69
2022/03/31 04:27:54;;;;;;;20.87;14.60;;;;;;;5.66;100.00;96218.31;5054339;28;20219;-69
2022/03/31 04:30:22;;;;;;;19.00;14.07;;;;;;;5.63;100.00;96217.72;5057036;28;20235;-70
2022/03/31 04:32:51;;;;;;;19.33;13.67;;;;;;;5.60;100.00;96210.94;5056167;28;20220;-69
2022/03/31 04:35:18;;;;;;;18.93;13.93;;;;;;;5.65;100.00;96207.94;5056062;28;20291;-70
2022/03/31 04:37:44;;;;;;;17.60;13.47;;;;;;;5.62;100.00;96209.00;5057505;28;20239;-68
2022/03/31 04:40:12;;;;;;;18.77;13.67;;;;;;;5.58;100.00;96207.59;5060768;28;20208;-69
2022/03/31 04:42:40;;;;;;;21.60;14.23;;;;;;;5.60;100.00;96197.81;5055835;28;20212;-70
2022/03/31 04:45:08;;;;;;;19.63;13.53;;;;;;;5.57;100.00;96208.53;5055878;28;20245;-70
2022/03/31 04:47:36;;;;;;;19.43;13.53;;;;;;;5.60;100.00;96205.69;5055674;28;20212;-71
2022/03/31 04:50:03;;;;;;;19.20;14.60;;;;;;;5.52;100.00;96205.47;5056850;28;20236;-69
2022/03/31 04:52:30;;;;;;;20.00;13.87;;;;;;;5.58;100.00;96207.59;5055627;28;20212;-71
2022/03/31 04:54:56;;;;;;;18.03;12.93;;;;;;;5.55;100.00;96210.47;5053684;28;20223;-70
2022/03/31 04:57:23;;;;;;;18.50;13.27;;;;;;;5.53;100.00;96209.75;5058917;28;20216;-71
2022/03/31 04:59:50;;;;;;;17.90;13.30;;;;;;;5.47;100.00;96207.63;5061132;28;20216;-71
2022/03/31 05:02:18;;;;;;;20.13;14.07;;;;;;;5.44;100.00;96202.63;5059104;28;20232;-70
2022/03/31 05:04:46;;;;;;;20.17;13.27;;;;;;;5.39;100.00;96206.56;5059719;28;20617;-70
2022/03/31 05:07:13;;;;;;;20.30;13.87;;;;;;;5.40;100.00;96203.84;5056555;28;20217;-70
2022/03/31 05:09:41;;;;;;;20.57;14.17;;;;;;;5.40;100.00;96206.44;5057088;28;20259;-69
2022/03/31 05:12:10;;;;;;;20.00;14.33;;;;;;;5.45;100.00;96196.41;5058091;28;20223;-70
2022/03/31 05:14:36;;;;;;;19.43;14.00;;;;;;;5.43;100.00;96190.47;5056883;28;20216;-70
2022/03/31 05:17:03;;;;;;;19.87;14.03;;;;;;;5.39;100.00;96191.69;5056326;28;20212;-69
2022/03/31 05:19:29;;;;;;;19.13;13.70;;;;;;;5.40;100.00;96198.59;5055020;28;20277;-71
2022/03/31 05:21:57;;;;;;;19.70;14.13;;;;;;;5.45;100.00;96198.22;5053997;28;20208;-69
2022/03/31 05:24:24;;;;;;;20.63;14.27;;;;;;;5.49;100.00;96199.66;5055061;28;20218;-71
2022/03/31 05:26:52;;;;;;;18.77;13.67;;;;;;;5.52;100.00;96196.78;5055080;28;20248;-69
2022/03/31 05:29:18;;;;;;;17.57;12.73;;;;;;;5.53;100.00;96196.66;5055748;28;20369;-71
2022/03/31 05:31:45;;;;;;;19.07;14.00;;;;;;;5.50;100.00;96193.44;5055208;28;20220;-69
2022/03/31 05:34:12;;;;;;;19.80;13.83;;;;;;;5.48;100.00;96193.56;5055223;28;20219;-70
2022/03/31 05:36:38;;;;;;;19.23;14.10;;;;;;;5.51;100.00;96193.31;5054738;28;20215;-69
2022/03/31 05:39:06;;;;;;;21.13;13.37;;;;;;;5.58;100.00;96186.66;5056163;28;20221;-71
2022/03/31 05:41:33;;;;;;;18.53;13.83;;;;;;;5.58;100.00;96183.19;5054578;28;20224;-71
2022/03/31 05:44:00;;;;;;;21.50;15.23;;;;;;;5.61;100.00;96185.56;5054773;28;20214;-70
2022/03/31 05:46:27;;;;;;;20.73;14.27;;;;;;;5.67;100.00;96187.69;5053179;28;20554;-70
2022/03/31 05:48:54;;;;;;;19.50;13.47;;;;;;;5.58;100.00;96184.03;5055817;28;20295;-69
2022/03/31 05:51:20;;;;;;;21.40;14.97;;;;;;;5.63;100.00;96192.31;5054299;28;20213;-69
2022/03/31 05:53:47;;;;;;;21.07;14.63;;;;;;;5.69;100.00;96186.59;5054620;28;20222;-71
2022/03/31 05:56:15;;;;;;;19.57;14.17;;;;;;;5.67;100.00;96188.50;5054537;28;20219;-70
2022/03/31 05:58:41;;;;;;;20.93;14.20;;;;;;;5.65;100.00;96190.44;5055800;28;20212;-70
2022/03/31 06:01:08;;;;;;;20.73;15.10;;;;;;;5.64;100.00;96191.41;5054454;28;20212;-70
2022/03/31 06:03:34;;;;;;;20.20;14.33;;;;;;;5.71;100.00;96189.94;5052947;28;20244;-68
2022/03/31 06:06:01;;;;;;;20.43;14.23;;;;;;;5.75;100.00;96198.38;5054143;28;20713;-70
2022/03/31 06:08:27;;;;;;;22.40;14.70;;;;;;;5.78;100.00;96196.34;5055341;28;20217;-70
2022/03/31 06:10:54;;;;;;;21.37;13.83;;;;;;;5.74;100.00;96194.91;5054009;28;20700;-69
2022/03/31 06:13:22;;;;;;;20.10;14.33;;;;;;;5.76;100.00;96190.41;5050726;28;20225;-70
2022/03/31 06:15:48;;;;;;;21.37;14.53;;;;;;;5.80;100.00;96194.47;5052846;28;20757;-70
2022/03/31 06:18:15;;;;;;;22.53;14.73;;;;;;;5.83;100.00;96194.22;5051885;28;20315;-70
2022/03/31 06:20:41;;;;;;;23.30;15.47;;;;;;;5.89;100.00;96192.88;5038046;28;20569;-71
2022/03/31 06:23:08;;;;;;;20.47;14.43;;;;;;;5.94;100.00;96193.34;5051662;28;20597;-69
2022/03/31 06:25:34;;;;;;;20.73;14.60;;;;;;;5.94;100.00;96202.06;5038786;28;20232;-69
2022/03/31 06:28:01;;;;;;;21.00;14.73;;;;;;;5.96;100.00;96194.91;5047711;28;20217;-69
2022/03/31 06:30:29;;;;;;;21.47;15.07;;;;;;;5.98;100.00;96190.34;5035733;28;20263;-69
2022/03/31 06:32:55;;;;;;;26.07;16.73;;;;;;;5.98;100.00;96192.97;5043043;28;20235;-70
2022/03/31 06:35:22;;;;;;;20.63;14.50;;;;;;;5.99;100.00;96189.38;5043864;28;20686;-69
2022/03/31 06:37:50;;;;;;;21.03;14.93;;;;;;;6.00;100.00;96179.75;5035518;28;20253;-70
2022/03/31 06:40:19;;;;;;;19.13;14.63;;;;;;;6.03;100.00;96185.56;5049599;28;20222;-70
2022/03/31 06:42:47;;;;;;;21.13;14.77;;;;;;;6.04;100.00;96181.97;5044284;28;20221;-68
2022/03/31 06:45:16;;;;;;;20.60;14.53;;;;;;;6.06;100.00;96176.63;5043057;28;20226;-69
2022/03/31 06:47:44;;;;;;;19.53;14.80;;;;;;;6.09;100.00;96173.72;5051290;28;20249;-70
2022/03/31 06:50:13;;;;;;;22.10;15.40;;;;;;;6.13;100.00;96185.63;5039774;28;20244;-68
2022/03/31 06:52:39;;;;;;;19.47;14.20;;;;;;;6.22;100.00;96184.91;5046513;28;20245;-70
2022/03/31 06:55:07;;;;;;;21.80;14.47;;;;;;;6.21;100.00;96173.56;5047959;28;20691;-70
2022/03/31 06:57:34;;;;;;;21.00;14.07;;;;;;;6.22;100.00;96180.47;5039070;28;20603;-68
2022/03/31 07:00:00;;;;;;;21.70;14.73;;;;;;;6.27;100.00;96178.31;5050644;28;20211;-70
2022/03/31 07:02:27;;;;;;;21.00;14.90;;;;;;;6.32;100.00;96185.78;5043830;28;20246;-70
2022/03/31 07:04:55;;;;;;;21.27;15.13;;;;;;;6.36;100.00;96185.38;5040885;28;20221;-70
2022/03/31 07:07:22;;;;;;;22.70;15.47;;;;;;;6.40;100.00;96173.69;5051682;28;20220;-70
2022/03/31 07:09:49;;;;;;;21.10;14.27;;;;;;;6.45;100.00;96171.53;5039272;28;20273;-71
2022/03/31 07:12:15;;;;;;;19.00;14.13;;;;;;;6.48;100.00;96173.06;5044230;28;20220;-70
2022/03/31 07:14:43;;;;;;;20.90;14.83;;;;;;;6.51;100.00;96165.75;5045764;28;20222;-70
2022/03/31 07:17:10;;;;;;;21.53;14.77;;;;;;;6.46;100.00;96167.94;5037601;28;20234;-70
2022/03/31 07:19:37;;;;;;;20.87;15.07;;;;;;;6.51;100.00;96170.16;5049524;28;20221;-69
2022/03/31 07:22:05;;;;;;;20.67;15.53;;;;;;;6.62;100.00;96165.69;5043069;28;20211;-68
2022/03/31 07:24:32;;;;;;;20.90;14.57;;;;;;;6.62;100.00;96167.47;5051298;28;20254;-70
2022/03/31 07:26:58;;;;;;;20.33;14.70;;;;;;;6.64;100.00;96170.78;5059727;28;20262;-69
2022/03/31 07:29:25;;;;;;;17.83;13.70;;;;;;;6.65;100.00;96172.47;5063423;28;20211;-70
2022/03/31 07:31:51;;;;;;;19.97;14.03;;;;;;;6.72;100.00;96169.19;5058826;28;20217;-70
2022/03/31 07:34:18;;;;;;;18.57;13.57;;;;;;;6.78;100.00;96168.66;5051455;28;20215;-70
2022/03/31 07:36:45;;;;;;;20.87;14.70;;;;;;;6.81;100.00;96170.19;5059261;28;20221;-69
2022/03/31 07:39:12;;;;;;;20.00;14.73;;;;;;;6.86;100.00;96174.09;5063138;28;20219;-70
2022/03/31 07:41:39;;;;;;;19.47;14.87;;;;;;;6.85;100.00;96164.53;5060965;28;20214;-69
2022/03/31 07:44:06;;;;;;;18.40;13.77;;;;;;;6.82;100.00;96163.97;5059612;28;20582;-70
2022/03/31 07:46:34;;;;;;;18.77;13.67;;;;;;;6.88;100.00;96147.69;5059495;28;20209;-70
2022/03/31 07:49:01;;;;;;;20.07;14.00;;;;;;;6.94;100.00;96155.06;5062843;28;20738;-70
2022/03/31 07:51:28;;;;;;;21.17;14.70;;;;;;;6.95;100.00;96152.31;5059523;28;20244;-69
2022/03/31 07:53:54;;;;;;;19.57;13.30;;;;;;;6.96;100.00;96156.59;5057488;28;20701;-70
2022/03/31 07:56:22;;;;;;;20.20;14.37;;;;;;;6.99;100.00;96156.34;5057854;28;20217;-70
2022/03/31 07:58:49;;;;;;;20.00;14.23;;;;;;;7.08;100.00;96149.47;5060233;28;20561;-69
2022/03/31 08:01:16;;;;;;;20.53;13.37;;;;;;;7.11;100.00;96150.03;5060298;28;20243;-69
2022/03/31 08:03:42;;;;;;;20.40;14.10;;;;;;;7.14;100.00;96141.88;5054966;28;20228;-69
2022/03/31 08:06:08;;;;;;;20.10;14.03;;;;;;;7.14;100.00;96146.31;5046010;28;20229;-70
2022/03/31 08:08:38;;;;;;;20.67;14.50;;;;;;;7.16;100.00;96142.59;5060536;28;20217;-70
2022/03/31 08:11:04;;;;;;;19.27;13.43;;;;;;;7.26;100.00;96151.31;5058711;28;20286;-69
2022/03/31 08:13:32;;;;;;;19.87;13.70;;;;;;;7.45;100.00;96153.97;5057891;28;20593;-69
2022/03/31 08:15:59;;;;;;;20.27;13.57;;;;;;;7.59;100.00;96151.00;5057796;28;20737;-69
2022/03/31 08:18:28;;;;;;;18.43;13.73;;;;;;;7.76;100.00;96152.94;5059975;28;21179;-69
2022/03/31 08:20:56;;;;;;;20.00;14.40;;;;;;;7.89;100.00;96153.50;5057770;28;20230;-69
2022/03/31 08:23:23;;;;;;;20.93;14.40;;;;;;;7.97;100.00;96157.09;5058052;28;20256;-69
2022/03/31 08:25:50;;;;;;;18.53;13.37;;;;;;;8.07;100.00;96147.41;5055836;28;20526;-70
2022/03/31 08:28:17;;;;;;;19.00;13.60;;;;;;;7.95;99.97;96142.44;5061160;28;20607;-68
2022/03/31 08:30:45;;;;;;;20.57;14.87;;;;;;;7.82;99.19;96147.13;5059756;28;20238;-68
2022/03/31 08:33:12;;;;;;;18.27;13.77;;;;;;;7.73;100.00;96147.97;5054518;28;20219;-68
2022/03/31 08:35:38;;;;;;;19.00;14.07;;;;;;;7.71;100.00;96142.00;5056807;28;20215;-69
2022/03/31 08:38:05;;;;;;;18.70;14.17;;;;;;;7.79;100.00;96142.16;5059844;28;20223;-69
2022/03/31 08:40:32;;;;;;;17.37;13.40;;;;;;;7.85;100.00;96146.84;5056814;28;20222;-69
2022/03/31 08:42:58;;;;;;;20.47;14.83;;;;;;;7.88;100.00;96142.16;5039226;28;20218;-69
2022/03/31 08:45:25;;;;;;;18.23;14.50;;;;;;;8.01;100.00;96141.88;5058307;28;20222;-70
2022/03/31 08:47:54;;;;;;;17.93;13.30;;;;;;;7.94;99.91;96136.34;5056175;28;20589;-68
2022/03/31 08:50:23;;;;;;;17.93;13.03;;;;;;;8.05;100.00;96132.75;5054750;28;20246;-70
2022/03/31 08:52:50;;;;;;;18.97;13.77;;;;;;;8.13;99.27;96132.84;5050638;28;20254;-68
2022/03/31 08:55:18;;;;;;;20.83;15.00;;;;;;;8.24;98.95;96127.50;5055768;28;20245;-68
2022/03/31 08:57:46;;;;;;;20.83;15.03;;;;;;;8.22;97.24;96129.44;5056258;28;20316;-70
2022/03/31 09:00:15;;;;;;;18.93;15.13;;;;;;;8.11;97.87;96129.56;5055223;28;20222;-70
2022/03/31 09:02:55;;;;;;;19.93;15.17;;;;;;;8.05;98.04;96128.31;5059237;28;20241;-68
2022/03/31 09:05:21;;;;;;;20.37;14.03;;;;;;;7.95;99.78;96121.41;5060761;28;20221;-69
2022/03/31 09:07:59;;;;;;;19.37;14.97;;;;;;;7.94;100.00;96128.44;5063934;28;20240;-70
2022/03/31 09:10:30;;;;;;;20.40;14.63;;;;;;;7.98;100.00;96129.84;5061882;28;20320;-69
2022/03/31 09:13:00;;;;;;;19.67;14.03;;;;;;;7.90;100.00;96127.06;5059891;28;20261;-70
2022/03/31 09:15:27;;;;;;;19.67;14.07;;;;;;;7.91;100.00;96130.53;5062709;28;20210;-69
2022/03/31 09:17:56;;;;;;;22.03;15.67;;;;;;;8.07;100.00;96131.63;5062967;28;20232;-69
2022/03/31 09:20:23;;;;;;;18.70;14.43;;;;;;;8.07;100.00;96126.38;5060651;28;20232;-68
2022/03/31 09:22:50;;;;;;;22.13;15.87;;;;;;;8.17;100.00;96131.63;5057829;28;20212;-68
2022/03/31 09:25:27;;;;;;;21.73;15.20;;;;;;;8.36;100.00;96123.72;5058164;28;20255;-69
2022/03/31 09:27:53;;;;;;;20.30;14.57;;;;;;;8.60;100.00;96124.94;5060816;28;20218;-69
2022/03/31 09:30:20;;;;;;;19.17;14.50;;;;;;;8.75;100.00;96123.50;5056918;28;20249;-68
2022/03/31 09:32:48;;;;;;;20.30;14.47;;;;;;;8.90;100.00;96119.44;5053285;28;20583;-68
2022/03/31 09:35:20;;;;;;;26.23;15.57;;;;;;;8.97;97.65;96111.78;5060256;28;20587;-68
2022/03/31 09:37:49;;;;;;;20.00;14.60;;;;;;;9.09;97.48;96121.16;5060627;28;20317;-68
2022/03/31 09:40:17;;;;;;;19.63;14.27;;;;;;;9.17;97.53;96113.38;5056520;28;20222;-68
2022/03/31 09:42:55;;;;;;;19.17;14.43;;;;;;;9.24;95.07;96122.34;5053657;28;20217;-68
2022/03/31 09:45:21;;;;;;;18.97;14.20;;;;;;;9.20;94.43;96110.44;5060344;28;20673;-68
2022/03/31 09:47:51;;;;;;;18.97;14.23;;;;;;;9.21;95.38;96115.56;5057508;28;20213;-68
2022/03/31 09:50:20;;;;;;;18.80;14.53;;;;;;;9.39;94.55;96107.69;5054781;28;20240;-66
2022/03/31 09:52:48;;;;;;;20.60;15.30;;;;;;;9.34;92.71;96107.28;5057316;28;20262;-68
2022/03/31 09:55:18;;;;;;;20.07;14.57;;;;;;;9.75;96.33;96093.56;5060633;28;20252;-68
2022/03/31 09:57:46;;;;;;;19.80;14.57;;;;;;;10.14;95.85;96094.94;5061513;28;20218;-69
2022/03/31 10:00:14;;;;;;;22.90;15.87;;;;;;;10.27;90.27;96095.41;5060323;28;20251;-68
2022/03/31 10:02:41;;;;;;;19.77;14.67;;;;;;;10.45;93.85;96096.19;5062531;28;20242;-68
2022/03/31 10:05:09;;;;;;;19.27;14.47;;;;;;;10.69;90.47;96093.69;5063675;28;20691;-69
2022/03/31 10:07:37;;;;;;;17.80;13.57;;;;;;;10.81;86.84;96087.16;5061666;28;20215;-67
2022/03/31 10:10:04;;;;;;;20.03;14.47;;;;;;;10.77;88.66;96089.28;5059977;28;20212;-66
2022/03/31 10:12:36;;;;;;;20.00;14.50;;;;;;;10.81;89.95;96085.34;5062482;28;20259;-66
2022/03/31 10:15:09;;;;;;;18.63;13.80;;;;;;;10.76;88.39;96086.81;5061717;28;20266;-67
2022/03/31 10:17:36;;;;;;;18.03;14.03;;;;;;;10.78;88.53;96083.03;5052360;28;20269;-67
2022/03/31 10:20:09;;;;;;;19.77;14.80;;;;;;;10.96;85.49;96082.94;5060072;28;20235;-67
2022/03/31 10:25:22;;;;;;;20.17;15.23;;;;;;;11.09;85.24;96078.88;5060839;28;20222;-67
2022/03/31 10:27:50;;;;;;;17.87;13.10;;;;;;;11.20;84.53;96077.78;5059978;28;20584;-67
2022/03/31 10:30:20;;;;;;;20.40;14.57;;;;;;;11.44;82.20;96075.22;5063167;28;20222;-66
2022/03/31 10:32:52;;;;;;;18.77;14.30;;;;;;;11.37;81.40;96068.91;5063685;28;20218;-67
2022/03/31 10:35:23;;;;;;;19.30;13.90;;;;;;;11.46;82.98;96065.28;5044985;28;20219;-67
2022/03/31 10:37:51;;;;;;;19.07;13.53;;;;;;;11.60;84.28;96067.31;5046626;28;20218;-67
2022/03/31 10:40:30;;;;;;;16.50;13.53;;;;;;;11.73;83.03;96063.22;5052092;28;20224;-67
2022/03/31 10:42:56;;;;;;;19.47;14.07;;;;;;;11.86;81.61;96070.72;5045491;28;20520;-66
2022/03/31 10:45:34;;;;;;;18.63;14.13;;;;;;;12.00;81.87;96064.75;5045654;28;20213;-67
2022/03/31 10:48:01;;;;;;;17.33;13.43;;;;;;;12.01;80.21;96063.75;5052422;28;20220;-66
2022/03/31 10:50:28;;;;;;;16.30;12.87;;;;;;;12.01;79.08;96066.41;5050642;28;20216;-65
2022/03/31 10:53:02;;;;;;;16.73;12.83;;;;;;;11.84;78.70;96070.03;5045946;28;20227;-67
2022/03/31 10:55:40;;;;;;;16.63;13.13;;;;;;;11.74;78.71;96066.72;5045798;28;20212;-67
2022/03/31 10:58:08;;;;;;;16.63;13.67;;;;;;;11.53;81.71;96068.94;5052351;28;20268;-67
2022/03/31 11:00:34;;;;;;;17.63;13.80;;;;;;;11.34;83.21;96070.06;5047480;28;20607;-68
2022/03/31 11:03:01;;;;;;;15.50;12.33;;;;;;;11.25;83.42;96051.69;5044849;28;20242;-66
2022/03/31 11:05:28;;;;;;;18.03;12.70;;;;;;;11.25;83.54;96051.69;5048016;28;20226;-66
2022/03/31 11:08:07;;;;;;;15.30;12.43;;;;;;;11.36;83.51;96054.00;5050573;28;20218;-68
2022/03/31 11:10:43;;;;;;;17.43;13.20;;;;;;;11.26;81.81;96053.34;5045903;28;20664;-66
2022/03/31 11:13:10;;;;;;;19.60;13.70;;;;;;;11.15;82.97;96057.09;5046667;28;20216;-68
2022/03/31 11:15:37;;;;;;;16.83;13.00;;;;;;;10.99;82.92;96054.38;5052119;28;20718;-66
2022/03/31 11:18:04;;;;;;;18.23;12.80;;;;;;;11.08;83.91;96050.78;5038873;28;20213;-68
2022/03/31 11:20:30;;;;;;;18.00;13.53;;;;;;;11.20;83.44;96040.75;5045598;28;20702;-68
2022/03/31 11:22:59;;;;;;;16.67;12.90;;;;;;;11.23;85.16;96043.91;5049194;28;20223;-66